sensor_id;sensor_type;location;lat;lon;timestamp;temperature;humidity
21267;DHT22;10791;53.108;18.326;2022-07-21T00:03:46;18.20;99.90
21267;DHT22;10791;53.108;18.326;2022-07-21T00:08:50;18.10;99.90
21267;DHT22;10791;53.108;18.326;2022-07-21T00:13:56;18.10;99.90
21267;DHT22;10791;53.108;18.326;2022-07-21T00:19:01;18.10;99.90
21267;DHT22;10791;53.108;18.326;2022-07-21T00:24:05;17.90;99.90
21267;DHT22;10791;53.108;18.326;2022-07-21T00:29:10;17.80;99.90
21267;DHT22;10791;53.108;18.326;2022-07-21T00:34:14;17.80;99.90
21267;DHT22;10791;53.108;18.326;2022-07-21T00:39:24;17.80;99.90
21267;DHT22;10791;53.108;18.326;2022-07-21T00:44:28;17.80;99.90
21267;DHT22;10791;53.108;18.326;2022-07-21T00:49:34;17.80;99.90
21267;DHT22;10791;53.108;18.326;2022-07-21T00:54:54;17.70;99.90
21267;DHT22;10791;53.108;18.326;2022-07-21T00:59:57;17.50;99.90
21267;DHT22;10791;53.108;18.326;2022-07-21T01:05:01;17.40;99.90
21267;DHT22;10791;53.108;18.326;2022-07-21T01:10:08;17.20;99.90
21267;DHT22;10791;53.108;18.326;2022-07-21T01:15:19;17.10;99.90
21267;DHT22;10791;53.108;18.326;2022-07-21T01:20:25;17.10;99.90
21267;DHT22;10791;53.108;18.326;2022-07-21T01:25:29;17.00;99.90
21267;DHT22;10791;53.108;18.326;2022-07-21T01:30:39;16.90;99.90
21267;DHT22;10791;53.108;18.326;2022-07-21T01:35:43;16.80;99.90
21267;DHT22;10791;53.108;18.326;2022-07-21T01:40:56;16.70;99.90
21267;DHT22;10791;53.108;18.326;2022-07-21T01:46:19;16.70;99.90
21267;DHT22;10791;53.108;18.326;2022-07-21T01:51:23;16.60;99.90
21267;DHT22;10791;53.108;18.326;2022-07-21T01:56:27;16.60;99.90
21267;DHT22;10791;53.108;18.326;2022-07-21T02:01:38;16.60;99.90
21267;DHT22;10791;53.108;18.326;2022-07-21T02:06:46;16.60;99.90
21267;DHT22;10791;53.108;18.326;2022-07-21T02:11:50;16.60;99.90
21267;DHT22;10791;53.108;18.326;2022-07-21T02:16:56;16.70;99.90
21267;DHT22;10791;53.108;18.326;2022-07-21T02:22:02;16.60;99.90
21267;DHT22;10791;53.108;18.326;2022-07-21T02:27:08;16.50;99.90
21267;DHT22;10791;53.108;18.326;2022-07-21T02:32:12;16.40;99.90
21267;DHT22;10791;53.108;18.326;2022-07-21T02:37:19;16.30;99.90
21267;DHT22;10791;53.108;18.326;2022-07-21T02:42:24;16.20;99.90
21267;DHT22;10791;53.108;18.326;2022-07-21T02:47:28;16.20;99.90
21267;DHT22;10791;53.108;18.326;2022-07-21T02:52:32;16.10;99.90
21267;DHT22;10791;53.108;18.326;2022-07-21T02:57:40;16.00;99.90
21267;DHT22;10791;53.108;18.326;2022-07-21T03:02:44;16.00;99.90
21267;DHT22;10791;53.108;18.326;2022-07-21T03:07:48;16.00;99.90
21267;DHT22;10791;53.108;18.326;2022-07-21T03:12:51;16.00;99.90
21267;DHT22;10791;53.108;18.326;2022-07-21T03:17:56;16.10;99.90
21267;DHT22;10791;53.108;18.326;2022-07-21T03:23:00;16.20;99.90
21267;DHT22;10791;53.108;18.326;2022-07-21T03:28:04;16.30;99.90
21267;DHT22;10791;53.108;18.326;2022-07-21T03:33:08;16.40;99.90
21267;DHT22;10791;53.108;18.326;2022-07-21T03:38:12;16.50;99.90
21267;DHT22;10791;53.108;18.326;2022-07-21T03:43:16;16.40;99.90
21267;DHT22;10791;53.108;18.326;2022-07-21T03:48:20;16.60;99.90
21267;DHT22;10791;53.108;18.326;2022-07-21T03:53:24;16.80;99.90
21267;DHT22;10791;53.108;18.326;2022-07-21T03:58:27;17.00;99.90
21267;DHT22;10791;53.108;18.326;2022-07-21T04:03:31;17.40;99.90
21267;DHT22;10791;53.108;18.326;2022-07-21T04:08:40;18.10;99.90
21267;DHT22;10791;53.108;18.326;2022-07-21T04:13:46;18.70;99.90
21267;DHT22;10791;53.108;18.326;2022-07-21T04:18:49;18.90;99.90
21267;DHT22;10791;53.108;18.326;2022-07-21T04:23:54;18.70;99.90
21267;DHT22;10791;53.108;18.326;2022-07-21T04:29:06;18.70;99.90
21267;DHT22;10791;53.108;18.326;2022-07-21T04:34:18;18.70;99.90
21267;DHT22;10791;53.108;18.326;2022-07-21T04:39:33;18.90;99.90
21267;DHT22;10791;53.108;18.326;2022-07-21T04:44:37;19.10;99.90
21267;DHT22;10791;53.108;18.326;2022-07-21T04:49:43;19.80;99.90
21267;DHT22;10791;53.108;18.326;2022-07-21T04:54:47;20.90;99.90
21267;DHT22;10791;53.108;18.326;2022-07-21T04:59:53;22.10;99.90
21267;DHT22;10791;53.108;18.326;2022-07-21T05:04:59;22.70;99.90
21267;DHT22;10791;53.108;18.326;2022-07-21T05:10:26;23.50;99.90
21267;DHT22;10791;53.108;18.326;2022-07-21T05:15:33;24.10;99.90
21267;DHT22;10791;53.108;18.326;2022-07-21T05:20:36;24.40;99.90
21267;DHT22;10791;53.108;18.326;2022-07-21T05:25:45;24.30;99.90
21267;DHT22;10791;53.108;18.326;2022-07-21T05:30:57;24.00;99.90
21267;DHT22;10791;53.108;18.326;2022-07-21T05:36:04;23.70;99.90
21267;DHT22;10791;53.108;18.326;2022-07-21T05:41:13;23.80;99.90
21267;DHT22;10791;53.108;18.326;2022-07-21T05:46:16;23.80;99.90
21267;DHT22;10791;53.108;18.326;2022-07-21T05:51:20;23.80;99.90
21267;DHT22;10791;53.108;18.326;2022-07-21T05:56:24;23.70;99.90
21267;DHT22;10791;53.108;18.326;2022-07-21T06:01:37;23.80;99.90
21267;DHT22;10791;53.108;18.326;2022-07-21T06:07:17;23.90;99.90
21267;DHT22;10791;53.108;18.326;2022-07-21T06:12:36;24.10;99.90
21267;DHT22;10791;53.108;18.326;2022-07-21T06:17:50;24.40;99.90
21267;DHT22;10791;53.108;18.326;2022-07-21T06:22:57;24.60;99.90
21267;DHT22;10791;53.108;18.326;2022-07-21T06:28:00;24.80;99.90
21267;DHT22;10791;53.108;18.326;2022-07-21T06:33:04;25.10;99.70
21267;DHT22;10791;53.108;18.326;2022-07-21T06:38:08;25.20;98.00
21267;DHT22;10791;53.108;18.326;2022-07-21T06:43:14;25.60;98.20
21267;DHT22;10791;53.108;18.326;2022-07-21T06:48:30;26.00;96.30
21267;DHT22;10791;53.108;18.326;2022-07-21T06:53:33;26.20;94.70
21267;DHT22;10791;53.108;18.326;2022-07-21T06:58:37;26.50;94.50
21267;DHT22;10791;53.108;18.326;2022-07-21T07:03:43;26.90;92.50
21267;DHT22;10791;53.108;18.326;2022-07-21T07:08:49;27.10;91.20
21267;DHT22;10791;53.108;18.326;2022-07-21T07:13:57;27.10;90.30
21267;DHT22;10791;53.108;18.326;2022-07-21T07:19:18;27.30;88.10
21267;DHT22;10791;53.108;18.326;2022-07-21T07:24:23;27.50;88.90
21267;DHT22;10791;53.108;18.326;2022-07-21T07:29:28;27.80;85.80
21267;DHT22;10791;53.108;18.326;2022-07-21T07:34:34;28.00;86.10
21267;DHT22;10791;53.108;18.326;2022-07-21T07:39:41;28.50;82.60
21267;DHT22;10791;53.108;18.326;2022-07-21T07:44:47;28.80;80.80
21267;DHT22;10791;53.108;18.326;2022-07-21T07:49:53;28.90;79.50
21267;DHT22;10791;53.108;18.326;2022-07-21T07:55:00;29.20;78.40
21267;DHT22;10791;53.108;18.326;2022-07-21T08:00:19;29.60;76.40
21267;DHT22;10791;53.108;18.326;2022-07-21T08:06:00;29.80;75.20
21267;DHT22;10791;53.108;18.326;2022-07-21T08:11:14;30.00;73.20
21267;DHT22;10791;53.108;18.326;2022-07-21T08:16:51;30.20;73.70
21267;DHT22;10791;53.108;18.326;2022-07-21T08:22:10;30.40;71.70
21267;DHT22;10791;53.108;18.326;2022-07-21T08:27:53;30.60;71.50
21267;DHT22;10791;53.108;18.326;2022-07-21T08:32:59;31.00;70.10
21267;DHT22;10791;53.108;18.326;2022-07-21T08:38:09;31.20;67.80
21267;DHT22;10791;53.108;18.326;2022-07-21T08:43:42;31.20;67.60
21267;DHT22;10791;53.108;18.326;2022-07-21T08:48:54;31.40;66.20
21267;DHT22;10791;53.108;18.326;2022-07-21T09:00:54;31.90;63.70
21267;DHT22;10791;53.108;18.326;2022-07-21T09:12:09;31.90;62.40
21267;DHT22;10791;53.108;18.326;2022-07-21T09:17:16;32.30;64.20
21267;DHT22;10791;53.108;18.326;2022-07-21T09:22:20;32.60;60.10
21267;DHT22;10791;53.108;18.326;2022-07-21T09:27:24;32.80;59.60
21267;DHT22;10791;53.108;18.326;2022-07-21T09:37:32;33.20;57.20
21267;DHT22;10791;53.108;18.326;2022-07-21T09:42:42;33.20;55.90
21267;DHT22;10791;53.108;18.326;2022-07-21T09:47:49;33.30;56.80
21267;DHT22;10791;53.108;18.326;2022-07-21T09:52:56;33.60;55.30
21267;DHT22;10791;53.108;18.326;2022-07-21T09:58:02;33.70;55.40
21267;DHT22;10791;53.108;18.326;2022-07-21T10:03:09;34.00;56.00
21267;DHT22;10791;53.108;18.326;2022-07-21T10:08:16;34.20;53.70
21267;DHT22;10791;53.108;18.326;2022-07-21T10:13:24;34.10;53.00
21267;DHT22;10791;53.108;18.326;2022-07-21T10:18:34;34.30;53.80
21267;DHT22;10791;53.108;18.326;2022-07-21T10:23:41;34.40;52.70
21267;DHT22;10791;53.108;18.326;2022-07-21T10:28:45;34.20;52.00
21267;DHT22;10791;53.108;18.326;2022-07-21T10:44:54;34.90;52.20
21267;DHT22;10791;53.108;18.326;2022-07-21T10:50:00;35.10;51.00
21267;DHT22;10791;53.108;18.326;2022-07-21T11:00:29;35.00;50.40
21267;DHT22;10791;53.108;18.326;2022-07-21T11:05:36;35.20;49.50
21267;DHT22;10791;53.108;18.326;2022-07-21T11:10:51;35.30;49.30
21267;DHT22;10791;53.108;18.326;2022-07-21T11:15:59;35.40;49.30
21267;DHT22;10791;53.108;18.326;2022-07-21T11:21:13;35.70;48.90
21267;DHT22;10791;53.108;18.326;2022-07-21T11:26:31;35.80;48.00
21267;DHT22;10791;53.108;18.326;2022-07-21T11:31:45;35.80;47.80
21267;DHT22;10791;53.108;18.326;2022-07-21T11:37:01;36.00;47.80
21267;DHT22;10791;53.108;18.326;2022-07-21T11:42:28;35.90;47.50
21267;DHT22;10791;53.108;18.326;2022-07-21T11:47:34;35.80;46.50
21267;DHT22;10791;53.108;18.326;2022-07-21T11:52:54;36.10;47.60
21267;DHT22;10791;53.108;18.326;2022-07-21T11:57:58;35.90;46.30
21267;DHT22;10791;53.108;18.326;2022-07-21T12:03:06;36.00;45.60
21267;DHT22;10791;53.108;18.326;2022-07-21T12:08:10;35.90;46.00
21267;DHT22;10791;53.108;18.326;2022-07-21T12:13:14;36.00;46.50
21267;DHT22;10791;53.108;18.326;2022-07-21T12:18:21;36.10;45.60
21267;DHT22;10791;53.108;18.326;2022-07-21T12:23:30;35.80;45.30
21267;DHT22;10791;53.108;18.326;2022-07-21T12:28:56;36.10;45.50
21267;DHT22;10791;53.108;18.326;2022-07-21T12:34:15;36.00;44.90
21267;DHT22;10791;53.108;18.326;2022-07-21T12:39:29;36.10;45.60
21267;DHT22;10791;53.108;18.326;2022-07-21T12:44:53;36.40;44.40
21267;DHT22;10791;53.108;18.326;2022-07-21T12:55:22;36.50;44.20
21267;DHT22;10791;53.108;18.326;2022-07-21T13:00:25;36.50;44.20
21267;DHT22;10791;53.108;18.326;2022-07-21T13:05:30;36.20;44.10
21267;DHT22;10791;53.108;18.326;2022-07-21T13:10:34;36.40;45.30
21267;DHT22;10791;53.108;18.326;2022-07-21T13:15:43;36.90;44.50
21267;DHT22;10791;53.108;18.326;2022-07-21T13:20:51;37.20;42.70
21267;DHT22;10791;53.108;18.326;2022-07-21T13:25:55;37.10;43.70
21267;DHT22;10791;53.108;18.326;2022-07-21T13:31:09;37.30;43.30
21267;DHT22;10791;53.108;18.326;2022-07-21T13:36:16;37.50;42.70
21267;DHT22;10791;53.108;18.326;2022-07-21T13:41:24;37.40;43.00
21267;DHT22;10791;53.108;18.326;2022-07-21T13:46:47;37.30;42.70
21267;DHT22;10791;53.108;18.326;2022-07-21T13:51:52;37.40;42.60
21267;DHT22;10791;53.108;18.326;2022-07-21T13:56:55;37.50;41.40
21267;DHT22;10791;53.108;18.326;2022-07-21T14:02:08;37.40;41.70
21267;DHT22;10791;53.108;18.326;2022-07-21T14:07:12;37.40;42.40
21267;DHT22;10791;53.108;18.326;2022-07-21T14:12:17;37.40;41.20
21267;DHT22;10791;53.108;18.326;2022-07-21T14:17:24;37.60;41.40
21267;DHT22;10791;53.108;18.326;2022-07-21T14:22:33;37.50;40.80
21267;DHT22;10791;53.108;18.326;2022-07-21T14:27:40;37.60;41.70
21267;DHT22;10791;53.108;18.326;2022-07-21T14:32:46;37.50;40.20
21267;DHT22;10791;53.108;18.326;2022-07-21T14:37:51;37.20;41.20
21267;DHT22;10791;53.108;18.326;2022-07-21T14:42:57;37.30;42.30
21267;DHT22;10791;53.108;18.326;2022-07-21T14:48:06;37.50;40.70
21267;DHT22;10791;53.108;18.326;2022-07-21T14:53:14;37.40;40.10
21267;DHT22;10791;53.108;18.326;2022-07-21T14:58:18;37.60;41.40
21267;DHT22;10791;53.108;18.326;2022-07-21T15:03:21;38.10;40.40
21267;DHT22;10791;53.108;18.326;2022-07-21T15:08:25;38.60;40.60
21267;DHT22;10791;53.108;18.326;2022-07-21T15:13:29;38.70;38.80
21267;DHT22;10791;53.108;18.326;2022-07-21T15:18:39;39.00;39.40
21267;DHT22;10791;53.108;18.326;2022-07-21T15:23:43;39.00;39.00
21267;DHT22;10791;53.108;18.326;2022-07-21T15:28:47;38.50;38.70
21267;DHT22;10791;53.108;18.326;2022-07-21T15:34:04;39.00;39.70
21267;DHT22;10791;53.108;18.326;2022-07-21T15:39:21;39.30;39.00
21267;DHT22;10791;53.108;18.326;2022-07-21T15:44:25;39.20;38.30
21267;DHT22;10791;53.108;18.326;2022-07-21T15:49:29;39.20;38.70
21267;DHT22;10791;53.108;18.326;2022-07-21T15:54:35;39.00;38.80
21267;DHT22;10791;53.108;18.326;2022-07-21T16:00:09;39.00;38.30
21267;DHT22;10791;53.108;18.326;2022-07-21T16:05:18;39.00;37.90
21267;DHT22;10791;53.108;18.326;2022-07-21T16:10:29;38.60;38.70
21267;DHT22;10791;53.108;18.326;2022-07-21T16:15:36;38.50;39.10
21267;DHT22;10791;53.108;18.326;2022-07-21T16:20:43;38.50;39.20
21267;DHT22;10791;53.108;18.326;2022-07-21T16:25:51;38.10;39.30
21267;DHT22;10791;53.108;18.326;2022-07-21T16:30:59;38.30;39.30
21267;DHT22;10791;53.108;18.326;2022-07-21T16:36:05;37.90;39.50
21267;DHT22;10791;53.108;18.326;2022-07-21T16:41:09;37.80;39.90
21267;DHT22;10791;53.108;18.326;2022-07-21T16:46:22;37.70;40.50
21267;DHT22;10791;53.108;18.326;2022-07-21T16:51:32;37.70;40.80
21267;DHT22;10791;53.108;18.326;2022-07-21T16:56:37;37.30;41.60
21267;DHT22;10791;53.108;18.326;2022-07-21T17:01:41;37.30;42.00
21267;DHT22;10791;53.108;18.326;2022-07-21T17:06:59;37.10;42.00
21267;DHT22;10791;53.108;18.326;2022-07-21T17:12:08;37.10;42.40
21267;DHT22;10791;53.108;18.326;2022-07-21T17:17:14;37.00;42.60
21267;DHT22;10791;53.108;18.326;2022-07-21T17:22:21;37.00;42.80
21267;DHT22;10791;53.108;18.326;2022-07-21T17:27:29;36.50;42.80
21267;DHT22;10791;53.108;18.326;2022-07-21T17:32:38;36.10;43.40
21267;DHT22;10791;53.108;18.326;2022-07-21T17:37:56;35.80;43.50
21267;DHT22;10791;53.108;18.326;2022-07-21T17:43:00;35.30;44.10
21267;DHT22;10791;53.108;18.326;2022-07-21T17:48:04;35.10;44.70
21267;DHT22;10791;53.108;18.326;2022-07-21T17:53:15;34.80;45.60
21267;DHT22;10791;53.108;18.326;2022-07-21T17:58:19;34.30;46.40
21267;DHT22;10791;53.108;18.326;2022-07-21T18:03:41;34.10;46.70
21267;DHT22;10791;53.108;18.326;2022-07-21T18:08:49;33.90;47.30
21267;DHT22;10791;53.108;18.326;2022-07-21T18:13:56;33.50;47.90
21267;DHT22;10791;53.108;18.326;2022-07-21T18:19:01;33.30;48.70
21267;DHT22;10791;53.108;18.326;2022-07-21T18:24:12;32.90;49.30
21267;DHT22;10791;53.108;18.326;2022-07-21T18:29:16;32.50;50.10
21267;DHT22;10791;53.108;18.326;2022-07-21T18:34:22;32.10;50.50
21267;DHT22;10791;53.108;18.326;2022-07-21T18:39:27;31.80;51.00
21267;DHT22;10791;53.108;18.326;2022-07-21T18:44:31;31.50;51.40
21267;DHT22;10791;53.108;18.326;2022-07-21T18:49:38;31.30;51.80
21267;DHT22;10791;53.108;18.326;2022-07-21T18:54:45;31.00;52.20
21267;DHT22;10791;53.108;18.326;2022-07-21T18:59:53;30.80;53.00
21267;DHT22;10791;53.108;18.326;2022-07-21T19:04:59;30.60;53.40
21267;DHT22;10791;53.108;18.326;2022-07-21T19:10:04;30.40;54.10
21267;DHT22;10791;53.108;18.326;2022-07-21T19:15:08;30.10;54.60
21267;DHT22;10791;53.108;18.326;2022-07-21T19:20:18;30.00;55.10
21267;DHT22;10791;53.108;18.326;2022-07-21T19:25:24;29.80;55.70
21267;DHT22;10791;53.108;18.326;2022-07-21T19:30:31;29.60;56.10
21267;DHT22;10791;53.108;18.326;2022-07-21T19:35:37;29.30;57.00
21267;DHT22;10791;53.108;18.326;2022-07-21T19:40:43;29.10;57.60
21267;DHT22;10791;53.108;18.326;2022-07-21T19:45:57;29.00;57.80
21267;DHT22;10791;53.108;18.326;2022-07-21T19:51:01;28.80;58.30
21267;DHT22;10791;53.108;18.326;2022-07-21T19:56:11;28.70;58.90
21267;DHT22;10791;53.108;18.326;2022-07-21T20:01:22;28.50;59.90
21267;DHT22;10791;53.108;18.326;2022-07-21T20:06:41;28.20;61.00
21267;DHT22;10791;53.108;18.326;2022-07-21T20:11:49;27.70;63.50
21267;DHT22;10791;53.108;18.326;2022-07-21T20:16:57;27.30;65.00
21267;DHT22;10791;53.108;18.326;2022-07-21T20:22:23;27.00;65.90
21267;DHT22;10791;53.108;18.326;2022-07-21T20:27:34;26.70;66.60
21267;DHT22;10791;53.108;18.326;2022-07-21T20:32:39;26.30;68.80
21267;DHT22;10791;53.108;18.326;2022-07-21T20:37:46;26.00;70.60
21267;DHT22;10791;53.108;18.326;2022-07-21T20:42:56;25.60;72.50
21267;DHT22;10791;53.108;18.326;2022-07-21T20:48:04;25.40;73.80
21267;DHT22;10791;53.108;18.326;2022-07-21T20:53:17;25.10;74.40
21267;DHT22;10791;53.108;18.326;2022-07-21T20:58:35;24.90;75.40
21267;DHT22;10791;53.108;18.326;2022-07-21T21:03:42;24.80;75.70
21267;DHT22;10791;53.108;18.326;2022-07-21T21:09:03;24.70;76.70
21267;DHT22;10791;53.108;18.326;2022-07-21T21:14:26;24.60;77.40
21267;DHT22;10791;53.108;18.326;2022-07-21T21:32:43;24.80;75.50
21267;DHT22;10791;53.108;18.326;2022-07-21T21:37:52;24.80;74.80
21267;DHT22;10791;53.108;18.326;2022-07-21T21:43:02;24.70;75.50
21267;DHT22;10791;53.108;18.326;2022-07-21T21:48:17;24.50;76.40
21267;DHT22;10791;53.108;18.326;2022-07-21T21:53:24;24.20;77.40
21267;DHT22;10791;53.108;18.326;2022-07-21T21:58:28;24.00;80.80
21267;DHT22;10791;53.108;18.326;2022-07-21T22:03:35;23.70;82.90
21267;DHT22;10791;53.108;18.326;2022-07-21T22:08:44;23.30;86.10
21267;DHT22;10791;53.108;18.326;2022-07-21T22:13:56;23.00;90.40
21267;DHT22;10791;53.108;18.326;2022-07-21T22:19:00;22.80;91.20
21267;DHT22;10791;53.108;18.326;2022-07-21T22:43:48;22.40;96.50
21267;DHT22;10791;53.108;18.326;2022-07-21T22:48:51;22.30;97.80
21267;DHT22;10791;53.108;18.326;2022-07-21T22:54:02;22.20;98.70
21267;DHT22;10791;53.108;18.326;2022-07-21T22:59:08;22.10;99.90
21267;DHT22;10791;53.108;18.326;2022-07-21T23:04:11;22.10;99.90
21267;DHT22;10791;53.108;18.326;2022-07-21T23:09:15;22.20;99.90
21267;DHT22;10791;53.108;18.326;2022-07-21T23:14:18;22.30;99.90
21267;DHT22;10791;53.108;18.326;2022-07-21T23:19:22;22.50;99.90
21267;DHT22;10791;53.108;18.326;2022-07-21T23:24:26;22.60;99.90
21267;DHT22;10791;53.108;18.326;2022-07-21T23:29:30;22.80;99.90
21267;DHT22;10791;53.108;18.326;2022-07-21T23:34:34;22.90;99.90
21267;DHT22;10791;53.108;18.326;2022-07-21T23:39:38;23.00;99.90
21267;DHT22;10791;53.108;18.326;2022-07-21T23:44:41;23.10;99.90
21267;DHT22;10791;53.108;18.326;2022-07-21T23:49:45;23.10;99.90
21267;DHT22;10791;53.108;18.326;2022-07-21T23:54:49;23.30;99.90
21267;DHT22;10791;53.108;18.326;2022-07-21T23:59:53;23.50;99.90
